Powderville, Montana
Current Conditions -  °F | °C
As of 4:32 AM on Thursday 18 Dec 2014 (Local Time) from KBHK Reporting Station
Haze Haze  
Wind Chill: 25°   Ceiling: 1400
Heat Index: 25°   Visibility: 6mi
Dew Point: 24°   Wind: 3mph
Humidity: 96%   Direction: 140°SE
Pressure: 29.94"   Gusts: NA
Location:  45.76°N, 105.11°W
Report Text: KBHK 181132Z AUTO 14003KT 6SM BR OVC014 M04/M04 A2994 RMK AO2 T10391044
Loading
Personal Weather Stations






























Interactive Weather Map New forecast layout! Learn more

10-Day Weather Forecast

Advertisements
Track Severe Weather on mobile